Time;durP1;ratioP1;P1;durP2;ratioP2;P2;SDS_P1;SDS_P2;PMS_P1;PMS_P2;Temp;Humidity;BMP_temperature;BMP_pressure;BME280_temperature;BME280_humidity;BME280_pressure;Samples;Min_cycle;Max_cycle;Signal;HPM_P1;HPM_P2
2023/09/07 00:00:22;;;;;;;1.70;1.70;;;23.40;73.70;;;;;;4990229;28;43709;-78
2023/09/07 00:02:50;;;;;;;1.80;1.80;;;23.40;73.80;;;;;;4994422;28;44616;-78
2023/09/07 00:05:18;;;;;;;2.00;2.00;;;23.30;73.90;;;;;;4976017;28;43429;-78
2023/09/07 00:07:47;;;;;;;2.00;2.00;;;23.30;74.00;;;;;;4977655;28;43569;-76
2023/09/07 00:10:15;;;;;;;2.00;2.00;;;23.30;75.00;;;;;;4990227;28;43617;-78
2023/09/07 00:12:43;;;;;;;2.37;2.27;;;23.20;74.20;;;;;;4989832;28;43457;-77
2023/09/07 00:15:11;;;;;;;2.00;2.00;;;23.20;74.30;;;;;;4989954;28;43455;-78
2023/09/07 00:17:41;;;;;;;2.10;2.10;;;23.20;74.40;;;;;;4986349;28;43599;-77
2023/09/07 00:20:14;;;;;;;1.80;1.80;;;23.20;74.50;;;;;;4995151;28;45018;-78
2023/09/07 00:22:44;;;;;;;1.90;1.90;;;23.10;74.90;;;;;;4988174;28;44711;-77
2023/09/07 00:25:13;;;;;;;2.17;2.17;;;23.20;74.80;;;;;;4990300;28;43486;-78
2023/09/07 00:27:42;;;;;;;1.97;1.97;;;23.30;74.30;;;;;;4979260;28;43505;-75
2023/09/07 00:30:11;;;;;;;1.90;1.90;;;23.50;73.70;;;;;;4990782;28;45409;-76
2023/09/07 00:32:41;;;;;;;1.93;1.93;;;23.70;73.10;;;;;;4991451;28;43470;-76
2023/09/07 00:35:09;;;;;;;1.67;1.67;;;23.90;72.40;;;;;;4975596;28;43438;-75
2023/09/07 00:37:38;;;;;;;1.88;1.88;;;24.10;71.50;;;;;;4968693;28;43648;-76
2023/09/07 00:40:09;;;;;;;1.95;1.95;;;24.40;70.80;;;;;;4970181;28;44781;-76
2023/09/07 00:42:37;;;;;;;1.90;1.90;;;24.50;70.10;;;;;;4963713;28;45056;-76
2023/09/07 00:45:06;;;;;;;2.00;2.00;;;24.70;69.60;;;;;;4985568;28;43456;-76
2023/09/07 00:47:35;;;;;;;1.73;1.73;;;24.80;69.20;;;;;;4978055;28;43459;-76
2023/09/07 00:50:05;;;;;;;2.00;2.00;;;24.90;69.00;;;;;;4967445;28;46291;-76
2023/09/07 00:52:35;;;;;;;1.85;1.85;;;25.00;68.70;;;;;;4971397;28;44711;-76
2023/09/07 00:55:04;;;;;;;1.92;1.92;;;25.00;68.50;;;;;;4988178;28;43902;-76
2023/09/07 00:57:33;;;;;;;1.80;1.80;;;24.90;68.70;;;;;;4992933;28;43459;-76
2023/09/07 01:00:03;;;;;;;1.80;1.80;;;24.70;69.00;;;;;;4974200;28;43847;-76
2023/09/07 01:02:31;;;;;;;1.80;1.80;;;24.50;69.50;;;;;;4987524;28;43395;-76
2023/09/07 01:05:00;;;;;;;2.05;2.05;;;24.40;70.30;;;;;;4989130;28;43370;-76
2023/09/07 01:07:33;;;;;;;2.25;2.25;;;24.30;70.70;;;;;;4987071;28;43378;-76
2023/09/07 01:10:02;;;;;;;1.90;1.90;;;24.10;70.90;;;;;;4990456;28;43924;-77
2023/09/07 01:12:31;;;;;;;1.98;1.98;;;24.00;71.40;;;;;;4988293;28;45011;-76
2023/09/07 01:15:00;;;;;;;2.00;2.00;;;23.90;71.90;;;;;;4991615;28;43506;-75
2023/09/07 01:17:28;;;;;;;1.90;1.90;;;23.80;72.10;;;;;;4970119;28;43528;-77
2023/09/07 01:19:57;;;;;;;1.60;1.60;;;23.80;72.40;;;;;;4986542;28;45825;-75
2023/09/07 01:22:26;;;;;;;1.90;1.90;;;23.70;72.50;;;;;;4989965;28;44958;-75
2023/09/07 01:24:55;;;;;;;2.00;2.00;;;23.60;72.70;;;;;;4989499;28;43525;-77
2023/09/07 01:27:23;;;;;;;2.03;2.00;;;23.60;72.80;;;;;;4991057;28;43816;-75
2023/09/07 01:29:52;;;;;;;2.10;2.10;;;23.70;72.50;;;;;;4987203;28;43851;-77
2023/09/07 01:32:20;;;;;;;2.30;2.20;;;23.80;72.10;;;;;;4972992;28;44985;-75
2023/09/07 01:34:48;;;;;;;1.95;1.95;;;24.00;71.80;;;;;;4983631;28;43482;-74
2023/09/07 01:37:16;;;;;;;2.10;2.10;;;24.00;71.60;;;;;;4988899;28;44261;-77
2023/09/07 01:39:46;;;;;;;1.80;1.80;;;23.90;71.70;;;;;;4977557;28;44197;-78
2023/09/07 01:42:14;;;;;;;2.00;2.00;;;23.90;72.00;;;;;;4992647;28;43469;-75
2023/09/07 01:44:43;;;;;;;2.10;2.10;;;23.70;72.20;;;;;;4979649;28;43414;-75
2023/09/07 01:47:11;;;;;;;2.00;2.00;;;23.70;72.40;;;;;;4975231;28;43526;-75
2023/09/07 01:49:39;;;;;;;2.13;2.13;;;23.70;72.60;;;;;;4992239;28;44169;-77
2023/09/07 01:52:07;;;;;;;1.90;1.90;;;23.60;72.70;;;;;;5001662;28;44757;-77
2023/09/07 01:54:36;;;;;;;1.90;1.90;;;23.50;73.00;;;;;;4994204;28;43546;-78
2023/09/07 01:57:06;;;;;;;2.10;2.10;;;23.50;73.10;;;;;;4974547;28;43548;-76
2023/09/07 01:59:34;;;;;;;1.90;1.90;;;23.50;73.20;;;;;;4979630;28;45663;-75
2023/09/07 02:02:02;;;;;;;1.90;1.90;;;23.50;73.20;;;;;;4994126;28;44884;-75
2023/09/07 02:04:30;;;;;;;2.07;2.07;;;23.50;73.50;;;;;;4996072;28;43493;-77
2023/09/07 02:06:58;;;;;;;1.70;1.70;;;23.40;73.50;;;;;;4998712;28;43841;-76
2023/09/07 02:09:27;;;;;;;2.20;2.20;;;23.50;73.50;;;;;;4995292;28;45643;-75
2023/09/07 02:11:55;;;;;;;2.10;2.10;;;23.60;73.20;;;;;;4998864;28;44720;-75
2023/09/07 02:14:25;;;;;;;1.83;1.83;;;23.70;72.70;;;;;;4976087;28;43363;-77
2023/09/07 02:16:53;;;;;;;2.10;2.10;;;23.80;72.30;;;;;;4980416;28;43489;-75
2023/09/07 02:19:22;;;;;;;1.90;1.90;;;23.80;72.20;;;;;;4999272;28;44098;-76
2023/09/07 02:21:51;;;;;;;2.13;2.13;;;23.70;72.20;;;;;;4995304;28;43412;-75
2023/09/07 02:24:19;;;;;;;1.90;1.90;;;23.70;72.60;;;;;;4979988;28;43438;-75
2023/09/07 02:26:47;;;;;;;2.00;2.00;;;23.60;72.70;;;;;;4997387;28;43727;-77
2023/09/07 02:29:16;;;;;;;2.10;2.10;;;23.60;72.80;;;;;;4993839;28;43569;-78
2023/09/07 02:31:45;;;;;;;1.90;1.90;;;23.60;73.00;;;;;;4981323;28;43382;-76
2023/09/07 02:34:13;;;;;;;1.90;1.90;;;23.50;73.20;;;;;;4977471;28;43407;-78
2023/09/07 02:36:42;;;;;;;1.90;1.90;;;23.50;73.30;;;;;;4976728;28;43416;-79
2023/09/07 02:39:11;;;;;;;2.27;2.17;;;23.50;73.40;;;;;;4964244;28;46079;-76
2023/09/07 02:41:39;;;;;;;2.07;2.07;;;23.40;73.40;;;;;;4989205;28;43402;-76
2023/09/07 02:44:07;;;;;;;2.30;2.30;;;23.40;73.50;;;;;;4979176;28;43493;-77
2023/09/07 02:46:35;;;;;;;1.90;1.90;;;23.40;73.80;;;;;;4992979;28;43406;-75
2023/09/07 02:49:05;;;;;;;2.03;2.03;;;23.40;73.80;;;;;;4992279;28;45564;-75
2023/09/07 02:51:33;;;;;;;2.07;2.07;;;23.30;74.40;;;;;;4997974;28;44962;-75
2023/09/07 02:54:02;;;;;;;2.00;2.00;;;23.30;73.70;;;;;;4996903;28;43378;-75
2023/09/07 02:56:32;;;;;;;2.00;2.00;;;23.30;74.00;;;;;;4993278;28;43549;-75
2023/09/07 02:59:00;;;;;;;1.80;1.80;;;23.40;74.00;;;;;;4978303;28;43868;-76
2023/09/07 03:01:28;;;;;;;2.00;2.00;;;23.40;73.50;;;;;;4994657;28;43763;-76
2023/09/07 03:03:59;;;;;;;2.20;2.20;;;23.50;73.10;;;;;;4979367;28;43516;-75
2023/09/07 03:06:28;;;;;;;2.10;2.10;;;23.70;72.70;;;;;;4992563;28;43508;-75
2023/09/07 03:08:57;;;;;;;2.20;2.20;;;23.70;72.40;;;;;;4997188;28;45555;-75
2023/09/07 03:11:25;;;;;;;2.10;2.10;;;23.70;72.30;;;;;;4979429;28;43467;-76
2023/09/07 03:13:53;;;;;;;2.20;2.20;;;23.70;72.60;;;;;;4982383;28;43451;-75
2023/09/07 03:16:21;;;;;;;2.10;2.10;;;23.60;72.80;;;;;;4977159;28;43630;-75
2023/09/07 03:18:50;;;;;;;1.90;1.90;;;23.60;73.00;;;;;;4996989;28;45715;-75
2023/09/07 03:21:18;;;;;;;1.97;1.97;;;23.50;73.00;;;;;;4996730;28;44966;-75
2023/09/07 03:23:47;;;;;;;1.97;1.97;;;23.50;73.90;;;;;;4992595;28;43439;-76
2023/09/07 03:26:16;;;;;;;1.90;1.90;;;23.40;73.50;;;;;;4977449;28;44007;-75
2023/09/07 03:28:44;;;;;;;2.00;1.90;;;23.40;73.50;;;;;;4982074;28;45598;-75
2023/09/07 03:31:12;;;;;;;2.17;2.17;;;23.40;73.50;;;;;;4989734;28;45160;-76
2023/09/07 03:33:41;;;;;;;2.07;2.07;;;23.40;73.50;;;;;;4989961;28;43513;-75
2023/09/07 03:36:09;;;;;;;1.90;1.90;;;23.40;73.70;;;;;;4992699;28;43584;-75
2023/09/07 03:38:37;;;;;;;2.07;2.07;;;23.30;74.00;;;;;;4987287;28;45839;-75
2023/09/07 03:41:07;;;;;;;1.87;1.80;;;23.40;73.80;;;;;;4998981;28;44941;-76
2023/09/07 03:43:35;;;;;;;2.00;2.00;;;23.40;73.30;;;;;;4997962;28;43392;-75
2023/09/07 03:46:03;;;;;;;2.00;2.00;;;23.60;73.00;;;;;;4994627;28;43533;-75
2023/09/07 03:48:31;;;;;;;2.30;2.30;;;23.60;72.70;;;;;;4997086;28;43829;-76
2023/09/07 03:51:00;;;;;;;2.10;2.10;;;23.60;72.70;;;;;;4989247;28;45762;-75
2023/09/07 03:53:28;;;;;;;1.90;1.90;;;23.60;72.80;;;;;;5001994;28;43460;-75
2023/09/07 03:55:57;;;;;;;2.10;2.10;;;23.50;73.10;;;;;;4997240;28;43385;-77
2023/09/07 03:58:26;;;;;;;2.00;2.00;;;23.50;73.20;;;;;;4989842;28;44234;-76
2023/09/07 04:00:54;;;;;;;1.77;1.77;;;23.50;73.30;;;;;;4991002;28;44046;-77
2023/09/07 04:03:22;;;;;;;1.90;1.90;;;23.40;73.30;;;;;;4986681;28;43442;-77
2023/09/07 04:05:51;;;;;;;2.10;2.10;;;23.40;73.70;;;;;;4979365;28;43545;-77
2023/09/07 04:08:19;;;;;;;2.10;2.10;;;23.40;73.70;;;;;;4988498;28;43848;-76
2023/09/07 04:10:48;;;;;;;2.07;2.07;;;23.40;73.50;;;;;;4988406;28;43469;-77
2023/09/07 04:13:19;;;;;;;2.10;2.10;;;23.50;73.00;;;;;;4993913;28;43350;-76
2023/09/07 04:15:49;;;;;;;1.90;1.90;;;23.60;72.70;;;;;;4990779;28;43573;-77
2023/09/07 04:18:17;;;;;;;1.92;1.92;;;23.70;72.50;;;;;;4992010;28;46058;-78
2023/09/07 04:20:46;;;;;;;1.88;1.88;;;23.70;72.60;;;;;;4971952;28;43739;-79
2023/09/07 04:23:16;;;;;;;1.80;1.80;;;23.60;72.70;;;;;;4988048;28;44571;-78
2023/09/07 04:25:44;;;;;;;2.10;2.10;;;23.50;73.00;;;;;;4988588;28;44105;-81
2023/09/07 04:28:14;;;;;;;1.90;1.90;;;23.50;73.10;;;;;;4972571;28;43845;-79
2023/09/07 04:30:43;;;;;;;2.00;2.00;;;23.50;73.20;;;;;;4988639;28;44978;-77
2023/09/07 04:33:12;;;;;;;2.00;2.00;;;23.40;73.20;;;;;;4993474;28;43486;-77
2023/09/07 04:35:40;;;;;;;1.93;1.93;;;23.40;73.30;;;;;;4990613;28;43800;-80
2023/09/07 04:38:08;;;;;;;1.90;1.90;;;23.40;73.60;;;;;;4982728;28;45727;-79
2023/09/07 04:40:37;;;;;;;1.80;1.80;;;23.40;73.70;;;;;;4973393;28;43800;-78
2023/09/07 04:43:06;;;;;;;1.85;1.85;;;23.40;73.50;;;;;;4994073;28;43301;-80
2023/09/07 04:45:34;;;;;;;1.90;1.90;;;23.30;73.10;;;;;;4990346;28;44242;-77
2023/09/07 04:48:02;;;;;;;2.10;2.10;;;23.30;73.70;;;;;;4982124;28;45422;-76
2023/09/07 04:50:35;;;;;;;2.10;2.10;;;23.30;73.80;;;;;;4970906;28;44740;-77
2023/09/07 04:53:04;;;;;;;1.97;1.97;;;23.40;73.70;;;;;;4974341;28;43410;-78
2023/09/07 04:55:32;;;;;;;2.30;2.30;;;23.40;73.20;;;;;;4979355;28;43572;-78
2023/09/07 04:58:00;;;;;;;1.90;1.90;;;23.60;72.70;;;;;;4976036;28;46100;-77
2023/09/07 05:00:28;;;;;;;2.07;2.07;;;23.60;72.50;;;;;;4973594;28;45262;-78
2023/09/07 05:02:56;;;;;;;1.93;1.93;;;23.60;72.50;;;;;;4995500;28;43506;-78
2023/09/07 05:05:24;;;;;;;2.33;2.13;;;23.50;72.50;;;;;;4983217;28;43593;-78
2023/09/07 05:07:54;;;;;;;1.87;1.87;;;23.40;72.90;;;;;;4996600;28;45729;-74
2023/09/07 05:10:22;;;;;;;2.03;2.03;;;23.40;73.00;;;;;;4983198;28;45883;-74
2023/09/07 05:12:51;;;;;;;1.87;1.87;;;23.40;73.10;;;;;;4998711;28;43421;-74
2023/09/07 05:15:25;;;;;;;2.07;2.07;;;23.40;73.10;;;;;;4979453;28;43481;-73
2023/09/07 05:18:09;;;;;;;2.23;2.07;;;23.40;73.50;;;;;;4998747;28;45538;-74
2023/09/07 05:20:37;;;;;;;2.20;2.20;;;23.30;73.40;;;;;;4995631;28;44527;-74
2023/09/07 05:23:12;;;;;;;1.93;1.93;;;23.30;73.50;;;;;;4982776;28;43559;-74
2023/09/07 05:25:53;;;;;;;1.90;1.90;;;23.30;73.30;;;;;;4982350;28;43494;-74
2023/09/07 05:28:23;;;;;;;1.90;1.90;;;23.30;73.40;;;;;;4985457;28;44164;-74
2023/09/07 05:30:54;;;;;;;2.03;2.03;;;23.30;73.50;;;;;;4981031;28;43534;-74
2023/09/07 05:33:27;;;;;;;2.20;2.20;;;23.30;73.20;;;;;;4997097;28;43424;-74
2023/09/07 05:36:01;;;;;;;2.10;2.10;;;23.40;72.80;;;;;;4994842;28;43442;-74
2023/09/07 05:38:31;;;;;;;2.20;2.20;;;23.50;72.20;;;;;;4992097;28;43570;-74
2023/09/07 05:41:01;;;;;;;2.30;2.30;;;23.60;71.90;;;;;;4993624;28;44836;-74
2023/09/07 05:43:32;;;;;;;2.30;2.30;;;23.60;71.90;;;;;;4991869;28;43464;-73
2023/09/07 05:46:00;;;;;;;2.00;2.00;;;23.50;72.10;;;;;;4979410;28;43642;-73
2023/09/07 05:48:28;;;;;;;2.20;2.20;;;23.40;72.20;;;;;;4994431;28;45790;-74
2023/09/07 05:50:57;;;;;;;2.30;2.30;;;23.40;72.10;;;;;;4990505;28;44712;-73
2023/09/07 05:53:26;;;;;;;2.10;2.10;;;23.40;72.20;;;;;;4980463;28;43415;-74
2023/09/07 05:55:55;;;;;;;2.23;2.20;;;23.40;72.50;;;;;;4994538;28;43973;-73
2023/09/07 05:58:23;;;;;;;2.20;2.13;;;23.30;72.60;;;;;;4991149;28;43872;-74
2023/09/07 06:00:51;;;;;;;2.17;2.17;;;23.30;72.70;;;;;;4981864;28;44714;-74
2023/09/07 06:03:20;;;;;;;2.47;2.47;;;23.30;72.50;;;;;;4991543;28;43433;-74
2023/09/07 06:05:48;;;;;;;2.60;2.60;;;23.20;72.40;;;;;;4991003;28;43656;-73
2023/09/07 06:08:18;;;;;;;2.30;2.30;;;23.20;72.60;;;;;;4996673;28;43926;-73
2023/09/07 06:10:46;;;;;;;2.30;2.30;;;23.20;72.80;;;;;;4989632;28;44842;-74
2023/09/07 06:13:16;;;;;;;2.30;2.20;;;23.20;72.70;;;;;;4976771;28;43397;-73
2023/09/07 06:15:44;;;;;;;2.60;2.40;;;23.20;72.40;;;;;;4989747;28;43493;-74
2023/09/07 06:18:13;;;;;;;2.80;2.70;;;23.30;72.20;;;;;;4987627;28;45798;-78
2023/09/07 06:20:41;;;;;;;2.30;2.20;;;23.40;71.70;;;;;;4973109;28;43928;-77
2023/09/07 06:23:09;;;;;;;2.20;2.20;;;23.50;71.30;;;;;;4988130;28;43440;-77
2023/09/07 06:25:38;;;;;;;2.20;2.20;;;23.50;71.20;;;;;;4986535;28;43557;-78
2023/09/07 06:28:07;;;;;;;2.20;2.20;;;23.50;71.30;;;;;;4989824;28;45107;-77
2023/09/07 06:30:36;;;;;;;2.40;2.40;;;23.40;71.70;;;;;;4989613;28;45040;-78
2023/09/07 06:33:05;;;;;;;2.60;2.60;;;23.40;71.70;;;;;;4989127;28;43947;-77
2023/09/07 06:35:33;;;;;;;2.60;2.50;;;23.30;71.70;;;;;;4991083;28;43538;-78
2023/09/07 06:38:02;;;;;;;2.47;2.47;;;23.30;71.70;;;;;;4988787;28;45444;-77
2023/09/07 06:40:30;;;;;;;2.13;2.13;;;23.30;72.00;;;;;;4988912;28;43692;-78
2023/09/07 06:43:05;;;;;;;2.50;2.50;;;23.20;71.90;;;;;;4989478;28;43420;-78
2023/09/07 06:45:36;;;;;;;2.30;2.20;;;23.20;71.80;;;;;;4986178;28;43631;-78
2023/09/07 06:48:08;;;;;;;2.50;2.50;;;23.20;71.90;;;;;;4975379;28;45789;-78
2023/09/07 06:50:36;;;;;;;2.50;2.40;;;23.20;72.20;;;;;;4976441;28;45032;-77
2023/09/07 06:53:04;;;;;;;2.60;2.50;;;23.10;72.20;;;;;;4968050;28;43401;-77
2023/09/07 06:55:33;;;;;;;2.47;2.47;;;23.20;72.10;;;;;;4990263;28;43478;-77
2023/09/07 06:58:01;;;;;;;2.70;2.60;;;23.20;71.80;;;;;;4992610;28;46114;-77
2023/09/07 07:00:29;;;;;;;2.60;2.50;;;23.30;71.40;;;;;;4974807;28;44687;-78
2023/09/07 07:02:59;;;;;;;2.40;2.40;;;23.40;71.20;;;;;;4986821;28;43489;-78
2023/09/07 07:05:33;;;;;;;2.60;2.60;;;23.40;70.90;;;;;;4975406;28;44003;-76
2023/09/07 07:08:02;;;;;;;2.27;2.27;;;23.40;71.10;;;;;;4987467;28;45796;-77
2023/09/07 07:10:30;;;;;;;2.50;2.40;;;23.40;71.40;;;;;;4991496;28;44939;-77
2023/09/07 07:12:59;;;;;;;2.53;2.53;;;23.30;71.50;;;;;;4977957;28;43404;-76
2023/09/07 07:15:30;;;;;;;2.60;2.60;;;23.20;71.40;;;;;;4974898;28;43480;-77
2023/09/07 07:18:00;;;;;;;2.67;2.50;;;23.30;71.60;;;;;;4970487;28;45351;-78
2023/09/07 07:20:28;;;;;;;2.40;2.40;;;23.20;71.70;;;;;;4990835;28;44066;-79
2023/09/07 07:22:56;;;;;;;2.17;2.17;;;23.20;71.90;;;;;;4990008;28;43423;-79
2023/09/07 07:25:24;;;;;;;2.90;2.70;;;23.20;71.90;;;;;;4988460;28;43690;-78
2023/09/07 07:27:53;;;;;;;2.63;2.53;;;23.20;71.50;;;;;;4994826;28;47162;-73
2023/09/07 07:30:21;;;;;;;2.57;2.47;;;23.30;71.50;;;;;;4996920;28;45132;-75
2023/09/07 07:32:50;;;;;;;2.73;2.57;;;23.30;71.40;;;;;;4996736;28;43464;-72
2023/09/07 07:35:20;;;;;;;2.97;2.87;;;23.30;71.40;;;;;;4999515;28;43453;-73
2023/09/07 07:37:49;;;;;;;2.93;2.73;;;23.30;71.60;;;;;;4999592;28;44127;-73
2023/09/07 07:40:18;;;;;;;3.03;2.93;;;23.20;71.50;;;;;;4999704;28;44356;-75
2023/09/07 07:42:47;;;;;;;3.70;3.40;;;23.30;71.70;;;;;;4976072;28;43438;-72
2023/09/07 07:45:19;;;;;;;3.63;3.23;;;23.20;72.20;;;;;;4997098;28;43433;-73
2023/09/07 07:47:48;;;;;;;4.17;3.80;;;23.20;71.90;;;;;;4980368;28;44053;-72
2023/09/07 07:50:17;;;;;;;6.80;4.10;;;23.20;72.00;;;;;;4991131;28;44840;-72
2023/09/07 07:52:47;;;;;;;7.43;4.17;;;23.20;71.80;;;;;;4996483;28;43382;-72
2023/09/07 07:55:15;;;;;;;6.77;4.13;;;23.30;71.60;;;;;;4981094;28;43881;-72
2023/09/07 07:57:44;;;;;;;4.50;4.10;;;23.30;71.40;;;;;;4983472;28;45770;-74
2023/09/07 08:00:17;;;;;;;5.70;4.13;;;23.30;71.40;;;;;;4977575;28;43718;-75
2023/09/07 08:02:52;;;;;;;4.77;4.20;;;23.30;71.60;;;;;;4997420;28;43609;-72
2023/09/07 08:05:21;;;;;;;6.07;4.00;;;23.30;71.60;;;;;;5000743;28;43496;-73
2023/09/07 08:07:53;;;;;;;4.53;4.13;;;23.30;71.60;;;;;;4991628;28;46510;-72
2023/09/07 08:10:30;;;;;;;4.53;4.13;;;23.20;71.60;;;;;;4978099;28;44490;-74
2023/09/07 08:13:00;;;;;;;6.43;4.80;;;23.20;71.90;;;;;;4975528;28;43379;-74
2023/09/07 08:15:37;;;;;;;5.33;4.83;;;23.20;72.00;;;;;;4994728;28;44252;-75
2023/09/07 08:18:06;;;;;;;3.97;3.67;;;23.20;72.10;;;;;;4983995;28;45021;-76
2023/09/07 08:20:46;;;;;;;4.47;4.07;;;23.20;72.10;;;;;;4968760;28;44421;-77
2023/09/07 08:23:23;;;;;;;6.50;4.40;;;23.10;72.30;;;;;;4986430;28;43994;-75
2023/09/07 08:25:52;;;;;;;6.33;4.57;;;23.10;72.50;;;;;;4989780;28;43585;-77
2023/09/07 08:28:22;;;;;;;7.90;4.73;;;23.20;72.30;;;;;;4993299;28;45736;-77
2023/09/07 08:30:53;;;;;;;8.90;4.93;;;23.30;72.20;;;;;;4974325;28;44052;-75
2023/09/07 08:33:28;;;;;;;6.47;4.57;;;23.40;71.50;;;;;;4994251;28;43417;-77
2023/09/07 08:36:01;;;;;;;6.33;4.30;;;23.40;70.90;;;;;;4991891;28;43488;-74
2023/09/07 08:38:33;;;;;;;5.60;4.37;;;23.40;71.00;;;;;;4983120;28;43843;-77
2023/09/07 08:41:03;;;;;;;6.53;4.10;;;23.40;71.60;;;;;;4993126;28;43521;-79
2023/09/07 08:43:31;;;;;;;6.10;4.10;;;23.30;71.70;;;;;;4988895;28;43418;-78
2023/09/07 08:46:03;;;;;;;6.10;4.60;;;23.30;71.70;;;;;;4995228;28;43465;-76
2023/09/07 08:48:31;;;;;;;4.53;4.17;;;23.30;71.60;;;;;;4981968;28;45712;-77
2023/09/07 08:51:00;;;;;;;4.70;3.93;;;23.30;72.00;;;;;;4975480;28;44659;-77
2023/09/07 08:53:29;;;;;;;4.63;4.23;;;23.20;72.20;;;;;;4995587;28;43391;-78
2023/09/07 08:55:59;;;;;;;4.67;4.20;;;23.20;72.40;;;;;;4978358;28;43665;-77
2023/09/07 08:58:27;;;;;;;4.40;4.10;;;23.20;72.40;;;;;;4994617;28;45411;-76
2023/09/07 09:00:57;;;;;;;4.63;4.23;;;23.20;72.50;;;;;;4981027;28;44713;-77
2023/09/07 09:03:35;;;;;;;4.83;4.43;;;23.10;72.50;;;;;;4975538;28;43476;-77
2023/09/07 09:06:04;;;;;;;4.57;4.00;;;23.10;72.60;;;;;;4979309;28;43522;-78
2023/09/07 09:08:42;;;;;;;4.20;3.90;;;23.20;72.50;;;;;;4992690;28;43621;-77
2023/09/07 09:11:12;;;;;;;4.53;4.13;;;23.20;72.10;;;;;;4990997;28;43487;-78
2023/09/07 09:13:41;;;;;;;4.67;4.27;;;23.40;71.70;;;;;;4994553;28;43394;-77
2023/09/07 09:16:09;;;;;;;4.10;3.70;;;23.40;71.40;;;;;;4996205;28;43389;-77
2023/09/07 09:18:39;;;;;;;3.80;3.60;;;23.50;71.40;;;;;;4996349;28;43826;-76
2023/09/07 09:21:07;;;;;;;4.27;3.83;;;23.40;71.60;;;;;;4977140;28;44900;-79
2023/09/07 09:23:36;;;;;;;4.63;3.80;;;23.40;71.70;;;;;;4992113;28;43455;-79
2023/09/07 09:26:05;;;;;;;4.10;3.80;;;23.30;71.80;;;;;;4995945;28;43444;-79
2023/09/07 09:28:35;;;;;;;3.93;3.63;;;23.30;72.00;;;;;;4993587;28;43612;-78
2023/09/07 09:31:04;;;;;;;3.93;3.63;;;23.30;72.20;;;;;;4995038;28;43469;-78
2023/09/07 09:33:33;;;;;;;3.90;3.60;;;23.20;72.30;;;;;;4995194;28;43472;-79
2023/09/07 09:36:01;;;;;;;3.57;3.37;;;23.20;72.50;;;;;;4995226;28;43449;-78
2023/09/07 09:38:31;;;;;;;3.87;3.60;;;23.20;72.50;;;;;;4992641;28;45999;-78
2023/09/07 09:41:00;;;;;;;3.80;3.60;;;23.20;72.60;;;;;;4996331;28;43515;-76
2023/09/07 09:43:28;;;;;;;4.03;3.73;;;23.20;72.70;;;;;;4995816;28;43424;-76
2023/09/07 09:45:59;;;;;;;3.93;3.80;;;23.10;72.90;;;;;;4995987;28;43574;-77
2023/09/07 09:48:27;;;;;;;3.60;3.50;;;23.20;72.90;;;;;;4997560;28;43754;-75
2023/09/07 09:50:55;;;;;;;3.90;3.60;;;23.20;72.60;;;;;;4998377;28;43473;-77
2023/09/07 09:53:23;;;;;;;3.67;3.47;;;23.30;72.30;;;;;;4983975;28;44121;-75
2023/09/07 09:55:52;;;;;;;3.43;3.23;;;23.40;71.90;;;;;;4989256;28;43457;-75
2023/09/07 09:58:20;;;;;;;3.80;3.70;;;23.50;71.80;;;;;;4983902;28;43847;-75
2023/09/07 10:00:50;;;;;;;3.67;3.47;;;23.50;71.90;;;;;;4965919;28;44309;-76
2023/09/07 10:03:23;;;;;;;3.63;3.43;;;23.40;72.10;;;;;;4984480;28;43403;-77
2023/09/07 10:05:51;;;;;;;3.60;3.50;;;23.40;72.40;;;;;;4964501;28;43561;-75
2023/09/07 10:08:22;;;;;;;3.70;3.50;;;23.30;72.30;;;;;;4986652;28;43798;-75
2023/09/07 10:10:54;;;;;;;3.23;3.13;;;23.30;72.50;;;;;;4968669;28;44628;-77
2023/09/07 10:13:30;;;;;;;3.50;3.30;;;23.30;72.70;;;;;;4986335;28;43393;-77
2023/09/07 10:16:04;;;;;;;3.60;3.47;;;23.20;72.80;;;;;;4987800;28;43485;-77
2023/09/07 10:18:37;;;;;;;3.47;3.37;;;23.20;72.90;;;;;;4968526;28;46133;-77
2023/09/07 10:21:06;;;;;;;3.30;3.20;;;23.20;73.00;;;;;;4969280;28;44731;-77
2023/09/07 10:23:37;;;;;;;3.30;3.20;;;23.20;73.00;;;;;;4985146;28;43785;-75
2023/09/07 10:26:06;;;;;;;3.17;3.07;;;23.20;73.20;;;;;;4990548;28;43433;-77
2023/09/07 10:28:34;;;;;;;3.30;3.20;;;23.20;73.20;;;;;;4968446;28;45716;-77
2023/09/07 10:31:04;;;;;;;3.73;3.53;;;23.20;72.90;;;;;;4986368;28;44664;-78
2023/09/07 10:33:32;;;;;;;3.60;3.50;;;23.30;72.70;;;;;;4986726;28;43505;-77
2023/09/07 10:36:03;;;;;;;3.73;3.60;;;23.40;72.20;;;;;;4989938;28;44331;-77
2023/09/07 10:38:32;;;;;;;3.67;3.47;;;23.50;71.80;;;;;;4970431;28;45660;-76
2023/09/07 10:41:02;;;;;;;3.40;3.30;;;23.50;72.00;;;;;;4989709;28;43653;-76
2023/09/07 10:43:31;;;;;;;3.00;2.90;;;23.40;72.20;;;;;;4982325;28;44740;-75
2023/09/07 10:46:01;;;;;;;3.70;3.60;;;23.40;72.50;;;;;;4987580;28;43959;-76
2023/09/07 10:48:30;;;;;;;3.33;3.23;;;23.40;72.50;;;;;;4984324;28;43553;-76
2023/09/07 10:50:59;;;;;;;3.50;3.28;;;23.30;72.60;;;;;;4986605;28;43517;-76
2023/09/07 10:53:29;;;;;;;3.80;3.70;;;23.30;72.90;;;;;;4984675;28;43494;-76
2023/09/07 10:55:59;;;;;;;3.53;3.43;;;23.30;73.00;;;;;;4981513;28;43405;-76
2023/09/07 10:58:28;;;;;;;3.33;3.23;;;23.30;73.10;;;;;;5004953;28;44342;-76
2023/09/07 11:00:58;;;;;;;3.67;3.43;;;23.30;73.10;;;;;;5006446;28;43429;-76
2023/09/07 11:03:27;;;;;;;3.50;3.30;;;23.30;73.30;;;;;;5010223;28;43435;-77
2023/09/07 11:05:56;;;;;;;3.33;3.23;;;23.30;73.30;;;;;;5006802;28;43520;-77
2023/09/07 11:08:24;;;;;;;3.67;3.40;;;23.20;73.30;;;;;;4992889;28;45870;-77
2023/09/07 11:10:53;;;;;;;3.17;3.07;;;23.20;73.20;;;;;;5008759;28;44673;-75
2023/09/07 11:13:22;;;;;;;3.23;3.13;;;23.30;73.00;;;;;;5009250;28;43487;-76
2023/09/07 11:15:50;;;;;;;3.40;3.30;;;23.40;72.70;;;;;;4991450;28;44168;-76
2023/09/07 11:18:21;;;;;;;3.20;3.10;;;23.40;72.20;;;;;;4999475;28;44039;-76
2023/09/07 11:20:50;;;;;;;3.30;3.20;;;23.50;72.10;;;;;;5002148;28;44749;-76
2023/09/07 11:23:18;;;;;;;3.00;2.90;;;23.50;72.20;;;;;;4998943;28;43413;-76
2023/09/07 11:25:47;;;;;;;3.40;3.20;;;23.50;72.60;;;;;;5002436;28;43496;-76
2023/09/07 11:28:24;;;;;;;3.60;3.40;;;23.40;72.70;;;;;;4998673;28;43668;-76
2023/09/07 11:30:53;;;;;;;3.23;3.13;;;23.40;72.80;;;;;;4986660;28;43489;-76
2023/09/07 11:33:21;;;;;;;3.17;3.10;;;23.40;72.90;;;;;;4995189;28;43622;-76
2023/09/07 11:35:50;;;;;;;3.20;3.00;;;23.30;73.00;;;;;;4997498;28;43533;-75
2023/09/07 11:38:18;;;;;;;3.00;2.90;;;23.30;73.20;;;;;;4995344;28;43886;-76
2023/09/07 11:40:46;;;;;;;3.33;3.22;;;23.30;73.20;;;;;;5009166;28;43442;-75
2023/09/07 11:43:15;;;;;;;2.70;2.70;;;23.30;73.30;;;;;;5015528;28;44576;-76
2023/09/07 11:45:45;;;;;;;3.20;3.10;;;23.30;73.30;;;;;;4993466;28;43948;-76
2023/09/07 11:48:13;;;;;;;2.93;2.83;;;23.30;73.50;;;;;;5006279;28;45795;-76
2023/09/07 11:50:41;;;;;;;3.50;3.40;;;23.20;73.50;;;;;;4994474;28;44654;-76
2023/09/07 11:53:09;;;;;;;3.00;2.90;;;23.20;73.40;;;;;;5012218;28;43506;-76
2023/09/07 11:55:39;;;;;;;3.20;3.10;;;23.30;73.20;;;;;;4990828;28;44380;-76
2023/09/07 11:58:07;;;;;;;3.35;3.17;;;23.40;72.90;;;;;;4991325;28;45366;-76
2023/09/07 12:00:36;;;;;;;2.97;2.90;;;23.50;72.60;;;;;;5003129;28;44654;-76
2023/09/07 12:03:06;;;;;;;3.20;3.10;;;23.50;72.60;;;;;;5005898;28;43423;-75
2023/09/07 12:05:35;;;;;;;2.90;2.90;;;23.50;72.60;;;;;;5007730;28;43577;-76
2023/09/07 12:08:04;;;;;;;3.10;3.00;;;23.40;72.90;;;;;;4985940;28;43618;-76
2023/09/07 12:10:33;;;;;;;3.07;2.97;;;23.40;73.20;;;;;;4991909;28;44287;-76
2023/09/07 12:13:01;;;;;;;3.23;3.13;;;23.30;73.10;;;;;;4997211;28;43475;-76
2023/09/07 12:15:30;;;;;;;3.17;3.07;;;23.30;73.30;;;;;;4994094;28;43573;-76
2023/09/07 12:17:58;;;;;;;3.33;3.23;;;23.30;73.40;;;;;;4996542;28;43608;-76
2023/09/07 12:20:28;;;;;;;3.37;3.17;;;23.30;73.60;;;;;;4995718;28;44683;-76
2023/09/07 12:22:56;;;;;;;3.03;2.93;;;23.20;73.40;;;;;;4981347;28;43473;-76
2023/09/07 12:25:25;;;;;;;3.00;2.90;;;23.30;73.60;;;;;;4980514;28;43627;-76
2023/09/07 12:27:53;;;;;;;3.23;3.13;;;23.30;73.70;;;;;;4994900;28;43923;-76
2023/09/07 12:30:23;;;;;;;3.15;3.05;;;23.20;73.70;;;;;;4997023;28;43481;-75
2023/09/07 12:32:52;;;;;;;2.90;2.90;;;23.20;73.80;;;;;;4991943;28;43473;-76
2023/09/07 12:35:20;;;;;;;3.57;3.37;;;23.20;73.50;;;;;;4987798;28;43581;-76
2023/09/07 12:37:50;;;;;;;3.20;3.10;;;23.30;73.90;;;;;;4989025;28;43617;-76
2023/09/07 12:40:18;;;;;;;3.03;2.93;;;23.40;72.80;;;;;;4992070;28;44398;-76
2023/09/07 12:42:46;;;;;;;2.97;2.90;;;23.50;72.50;;;;;;4990489;28;43468;-76
2023/09/07 12:45:15;;;;;;;3.20;3.10;;;23.60;72.40;;;;;;4989163;28;43989;-75
2023/09/07 12:47:43;;;;;;;3.10;3.00;;;23.60;72.70;;;;;;4986405;28;45397;-75
2023/09/07 12:50:12;;;;;;;2.90;2.80;;;23.50;72.90;;;;;;4981936;28;43439;-75
2023/09/07 12:52:41;;;;;;;3.67;3.37;;;23.40;73.00;;;;;;4989505;28;43362;-76
2023/09/07 12:55:10;;;;;;;3.08;2.97;;;23.40;72.90;;;;;;4990242;28;43650;-76
2023/09/07 12:57:40;;;;;;;2.73;2.70;;;23.40;73.90;;;;;;5001347;28;45701;-77